Time;durP1;ratioP1;P1;durP2;ratioP2;P2;SDS_P1;SDS_P2;PMS_P1;PMS_P2;Temp;Humidity;BMP_temperature;BMP_pressure;BME280_temperature;BME280_humidity;BME280_pressure;Samples;Min_cycle;Max_cycle;Signal;HPM_P1;HPM_P2
2023/03/02 00:01:07;;;;;;;115.20;44.60;;;;;;;;;;110100;1280;22832;-73
2023/03/02 00:03:49;;;;;;;;;;;;;;;;;;;;;
2023/03/02 00:17:28;;;;;;;106.80;36.30;;;;;;;;;;109792;1268;22976;-73
2023/03/02 00:20:14;;;;;;;109.50;39.00;;;;;;;;;;109788;1287;22181;-73
2023/03/02 00:26:38;;;;;;;98.30;33.20;;;;;;;;;;109201;1276;23087;-73
2023/03/02 00:29:33;;;;;;;97.40;34.40;;;;;;;;;;109037;1294;22571;-73
2023/03/02 00:32:07;;;;;;;101.30;36.90;;;;;;;;;;109156;1293;22170;-73
2023/03/02 00:34:57;;;;;;;88.70;33.80;;;;;;;;;;109214;1293;22180;-73
2023/03/02 00:37:27;;;;;;;90.10;34.80;;;;;;;;;;109334;1282;22079;-73
2023/03/02 00:40:23;;;;;;;78.60;29.40;;;;;;;;;;109226;1294;23029;-73
2023/03/02 00:43:02;;;;;;;75.00;30.10;;;;;;;;;;109095;1294;21867;-73
2023/03/02 00:45:30;;;;;;;69.80;28.10;;;;;;;;;;109199;1287;22132;-73
2023/03/02 00:48:41;;;;;;;;;;;;;;;;;;;;;
2023/03/02 00:55:24;;;;;;;73.10;25.70;;;;;;;;;;109479;1291;22951;-73
2023/03/02 00:58:30;;;;;;;78.30;28.30;;;;;;;;;;109473;1281;23094;-73
2023/03/02 01:01:09;;;;;;;76.50;29.30;;;;;;;;;;109344;1291;22161;-73
2023/03/02 01:03:38;;;;;;;63.40;22.90;;;;;;;;;;109685;1287;22159;-73
2023/03/02 01:06:13;;;;;;;69.30;27.20;;;;;;;;;;109715;1287;22132;-73
2023/03/02 01:19:34;;;;;;;94.90;35.90;;;;;;;;;;108829;1279;22169;-73
2023/03/02 01:30:03;;;;;;;80.40;30.80;;;;;;;;;;108334;1285;22884;-74
2023/03/02 01:33:55;;;;;;;67.60;25.70;;;;;;;;;;107936;1303;23003;-74
2023/03/02 01:36:05;;;;;;;59.70;22.60;;;;;;;;;;107625;1307;22184;-73
2023/03/02 01:38:55;;;;;;;75.70;28.70;;;;;;;;;;103528;1297;545447;-75
2023/03/02 01:42:38;;;;;;;67.30;26.10;;;;;;;;;;105903;1290;22551;-79
2023/03/02 01:45:12;;;;;;;79.40;30.10;;;;;;;;;;105813;1291;22636;-76
2023/03/02 01:48:08;;;;;;;97.40;36.10;;;;;;;;;;105105;1299;23955;-75
2023/03/02 01:51:09;;;;;;;94.80;34.10;;;;;;;;;;104535;1285;22607;-76
2023/03/02 01:57:42;;;;;;;96.00;36.90;;;;;;;;;;104794;1302;22669;-79
2023/03/02 02:00:52;;;;;;;;;;;;;;;;;;;;;
2023/03/02 02:03:38;;;;;;;86.40;32.90;;;;;;;;;;104284;1308;25574;-74
2023/03/02 02:06:46;;;;;;;81.60;32.90;;;;;;;;;;104304;1308;22560;-78
2023/03/02 02:09:40;;;;;;;82.50;29.70;;;;;;;;;;103846;1290;22593;-76
2023/03/02 02:25:03;;;;;;;73.50;31.30;;;;;;;;;;103857;1301;544826;-78
2023/03/02 02:27:53;;;;;;;75.20;29.30;;;;;;;;;;106278;1286;22556;-80
2023/03/02 02:31:29;;;;;;;74.10;28.40;;;;;;;;;;106220;1286;22547;-77
2023/03/02 02:33:54;;;;;;;78.50;27.30;;;;;;;;;;105660;1275;29900;-75
2023/03/02 02:37:01;;;;;;;77.40;28.10;;;;;;;;;;105934;1289;25347;-76
2023/03/02 02:39:51;;;;;;;84.10;30.90;;;;;;;;;;104073;1288;22655;-74
2023/03/02 02:42:52;;;;;;;94.10;36.20;;;;;;;;;;105884;1288;22540;-75
2023/03/02 02:49:25;;;;;;;;;;;;;;;;;;;;;
2023/03/02 02:52:40;;;;;;;;;;;;;;;;;;;;;
2023/03/02 02:56:26;;;;;;;60.70;24.40;;;;;;;;;;105234;1299;22602;-78
2023/03/02 03:02:07;;;;;;;69.00;26.60;;;;;;;;;;108202;1303;22722;-73
2023/03/02 03:04:35;;;;;;;69.90;27.70;;;;;;;;;;108247;1286;22976;-73
2023/03/02 03:07:39;;;;;;;73.70;26.00;;;;;;;;;;108261;1303;22161;-73
2023/03/02 03:10:39;;;;;;;71.80;27.20;;;;;;;;;;108265;1301;22895;-74
2023/03/02 03:13:17;;;;;;;43.50;16.80;;;;;;;;;;108744;1298;22208;-74
2023/03/02 03:15:52;;;;;;;49.70;18.80;;;;;;;;;;108831;1280;22869;-73
2023/03/02 03:18:31;;;;;;;;;;;;;;;;;;;;;
2023/03/02 03:20:58;;;;;;;79.20;30.30;;;;;;;;;;108925;1296;22277;-74
2023/03/02 03:23:31;;;;;;;85.00;33.00;;;;;;;;;;108902;1296;22204;-73
2023/03/02 03:26:19;;;;;;;;;;;;;;;;;;;;;
2023/03/02 03:28:57;;;;;;;85.70;32.10;;;;;;;;;;109397;1292;22904;-74
2023/03/02 03:31:36;;;;;;;79.30;30.60;;;;;;;;;;109430;1286;22140;-73
2023/03/02 03:34:12;;;;;;;75.80;31.40;;;;;;;;;;109691;1286;22208;-74
2023/03/02 03:36:48;;;;;;;;;;;;;;;;;;;;;
2023/03/02 03:39:46;;;;;;;66.40;25.40;;;;;;;;;;110181;1279;22097;-74
2023/03/02 03:42:11;;;;;;;63.30;24.10;;;;;;;;;;110318;1279;22212;-74
2023/03/02 03:44:41;;;;;;;76.70;29.30;;;;;;;;;;110185;1277;22774;-74
2023/03/02 03:47:11;;;;;;;66.60;27.00;;;;;;;;;;110461;1256;22123;-74
2023/03/02 03:49:38;;;;;;;69.70;27.40;;;;;;;;;;110254;1277;22128;-74
2023/03/02 03:52:47;;;;;;;74.70;26.40;;;;;;;;;;110261;1277;22115;-76
2023/03/02 03:55:38;;;;;;;75.60;28.30;;;;;;;;;;110279;1254;23082;-74
2023/03/02 03:58:05;;;;;;;79.20;29.10;;;;;;;;;;110458;1277;22251;-74
2023/03/02 04:00:32;;;;;;;75.10;29.90;;;;;;;;;;110420;1278;22233;-74
2023/03/02 04:03:06;;;;;;;78.50;29.90;;;;;;;;;;110422;1277;22160;-74
2023/03/02 04:05:56;;;;;;;78.00;30.70;;;;;;;;;;110436;1254;22134;-74
2023/03/02 04:08:32;;;;;;;70.30;28.30;;;;;;;;;;110371;1277;22121;-75
2023/03/02 04:11:29;;;;;;;70.10;27.30;;;;;;;;;;110491;1277;22581;-74
2023/03/02 04:14:09;;;;;;;;;;;;;;;;;;;;;
2023/03/02 04:16:59;;;;;;;62.10;26.40;;;;;;;;;;110618;1260;22123;-72
2023/03/02 04:19:37;;;;;;;76.30;26.50;;;;;;;;;;110207;1277;22136;-72
2023/03/02 04:26:25;;;;;;;62.00;22.60;;;;;;;;;;109956;1260;22152;-75
2023/03/02 04:28:55;;;;;;;54.00;18.40;;;;;;;;;;109969;1284;22171;-74
2023/03/02 04:31:47;;;;;;;;;;;;;;;;;;;;;
2023/03/02 04:38:12;;;;;;;;;;;;;;;;;;;;;
2023/03/02 04:40:39;;;;;;;50.30;17.90;;;;;;;;;;109935;1284;22171;-75
2023/03/02 04:43:26;;;;;;;67.20;24.20;;;;;;;;;;109947;1284;22990;-75
2023/03/02 04:46:13;;;;;;;;;;;;;;;;;;;;;
2023/03/02 04:53:07;;;;;;;62.00;24.10;;;;;;;;;;109633;1290;21673;-74
2023/03/02 04:56:08;;;;;;;;;;;;;;;;;;;;;
2023/03/02 04:59:25;;;;;;;;;;;;;;;;;;;;;
2023/03/02 05:02:05;;;;;;;56.00;21.50;;;;;;;;;;109768;1284;22337;-74
2023/03/02 05:04:52;;;;;;;82.80;30.90;;;;;;;;;;109900;1284;22155;-74
2023/03/02 05:07:43;;;;;;;;;;;;;;;;;;;;;
2023/03/02 05:10:22;;;;;;;72.20;28.50;;;;;;;;;;110004;1265;22125;-74
2023/03/02 05:13:49;;;;;;;71.80;24.90;;;;;;;;;;109990;1283;22047;-74
2023/03/02 05:16:06;;;;;;;66.50;24.80;;;;;;;;;;110104;1280;22156;-74
2023/03/02 05:19:07;;;;;;;71.70;26.30;;;;;;;;;;110057;1263;22355;-74
2023/03/02 05:22:01;;;;;;;;;;;;;;;;;;;;;
2023/03/02 05:24:48;;;;;;;71.90;23.60;;;;;;;;;;110604;1274;22284;-74
2023/03/02 05:27:55;;;;;;;;;;;;;;;;;;;;;
2023/03/02 05:30:29;;;;;;;73.10;25.60;;;;;;;;;;111125;1256;22120;-74
2023/03/02 05:37:54;;;;;;;79.90;31.10;;;;;;;;;;110417;1275;22358;-74
2023/03/02 05:43:30;;;;;;;76.60;29.00;;;;;;;;;;110418;1276;22146;-74
2023/03/02 05:57:06;;;;;;;91.50;38.20;;;;;;;;;;109503;1291;22209;-74
2023/03/02 06:00:37;;;;;;;;;;;;;;;;;;;;;
2023/03/02 06:07:51;;;;;;;104.20;39.60;;;;;;;;;;108890;1297;22234;-74
2023/03/02 06:10:42;;;;;;;105.60;40.00;;;;;;;;;;108864;1280;22103;-74
2023/03/02 06:13:27;;;;;;;;;;;;;;;;;;;;;
2023/03/02 06:20:24;;;;;;;;;;;;;;;;;;;;;
2023/03/02 06:27:20;;;;;;;97.20;34.90;;;;;;;;;;108379;1301;22348;-74
2023/03/02 06:29:52;;;;;;;120.30;40.50;;;;;;;;;;108532;1273;23001;-74
2023/03/02 06:32:49;;;;;;;120.70;43.60;;;;;;;;;;108864;1297;22201;-74
2023/03/02 06:35:19;;;;;;;125.80;45.50;;;;;;;;;;109162;1293;22230;-74
2023/03/02 06:37:58;;;;;;;124.60;45.00;;;;;;;;;;109502;1286;22220;-72
2023/03/02 06:40:24;;;;;;;136.90;46.30;;;;;;;;;;109625;1267;22127;-72
2023/03/02 06:43:00;;;;;;;146.00;52.50;;;;;;;;;;109736;1288;22129;-72
2023/03/02 06:45:49;;;;;;;185.90;64.00;;;;;;;;;;109661;1288;22155;-72
2023/03/02 06:48:19;;;;;;;195.80;64.30;;;;;;;;;;109655;1288;22922;-72
2023/03/02 06:51:02;;;;;;;214.00;70.00;;;;;;;;;;109706;1268;22150;-73
2023/03/02 06:53:29;;;;;;;220.20;71.30;;;;;;;;;;110072;1277;22099;-73
2023/03/02 06:56:16;;;;;;;197.80;66.10;;;;;;;;;;110419;1277;22103;-74
2023/03/02 06:58:46;;;;;;;170.90;60.00;;;;;;;;;;110447;1277;22750;-73
2023/03/02 07:01:13;;;;;;;202.10;66.90;;;;;;;;;;110475;1264;22246;-73
2023/03/02 07:03:40;;;;;;;181.70;60.60;;;;;;;;;;110085;1277;22109;-75
2023/03/02 07:06:07;;;;;;;169.00;56.60;;;;;;;;;;110211;1278;22318;-74
2023/03/02 07:09:00;;;;;;;161.00;54.90;;;;;;;;;;110234;1277;22976;-76
2023/03/02 07:11:24;;;;;;;178.80;67.60;;;;;;;;;;110489;1269;22145;-74
2023/03/02 07:13:50;;;;;;;192.30;71.10;;;;;;;;;;110214;1277;22840;-75
2023/03/02 07:16:17;;;;;;;206.90;76.80;;;;;;;;;;110304;1277;22983;-75
2023/03/02 07:18:44;;;;;;;159.30;56.80;;;;;;;;;;110448;1277;22103;-75
2023/03/02 07:21:10;;;;;;;147.00;56.00;;;;;;;;;;110334;1270;22131;-75
2023/03/02 07:23:37;;;;;;;157.90;61.30;;;;;;;;;;110405;1277;22133;-73
2023/03/02 07:26:07;;;;;;;140.00;56.40;;;;;;;;;;110204;1277;22110;-73
2023/03/02 07:28:40;;;;;;;130.40;52.20;;;;;;;;;;110209;1277;22141;-74
2023/03/02 07:31:08;;;;;;;132.40;52.10;;;;;;;;;;110256;1253;22891;-74
2023/03/02 07:33:35;;;;;;;144.90;55.70;;;;;;;;;;110212;1277;22145;-74
2023/03/02 07:36:02;;;;;;;154.20;58.50;;;;;;;;;;110467;1277;22108;-74
2023/03/02 07:38:28;;;;;;;154.50;60.10;;;;;;;;;;110429;1277;22129;-74
2023/03/02 07:40:55;;;;;;;134.70;56.50;;;;;;;;;;110194;1254;22400;-74
2023/03/02 07:43:27;;;;;;;161.60;60.90;;;;;;;;;;110157;1278;22335;-74
2023/03/02 07:45:54;;;;;;;128.30;54.10;;;;;;;;;;110144;1278;22104;-74
2023/03/02 07:48:22;;;;;;;111.10;46.50;;;;;;;;;;110385;1277;22159;-74
2023/03/02 07:50:48;;;;;;;102.10;46.60;;;;;;;;;;110189;1278;22087;-74
2023/03/02 07:53:15;;;;;;;105.00;45.10;;;;;;;;;;110579;1259;22132;-74
2023/03/02 07:55:42;;;;;;;111.10;46.90;;;;;;;;;;110156;1278;22108;-74
2023/03/02 07:58:10;;;;;;;123.50;47.10;;;;;;;;;;110163;1278;22836;-74
2023/03/02 08:00:38;;;;;;;101.60;41.90;;;;;;;;;;110178;1278;22146;-74
2023/03/02 08:03:05;;;;;;;97.00;40.10;;;;;;;;;;110357;1262;22122;-74
2023/03/02 08:05:31;;;;;;;81.20;36.40;;;;;;;;;;110165;1278;22122;-74
2023/03/02 08:07:58;;;;;;;75.60;32.50;;;;;;;;;;110182;1278;22109;-74
2023/03/02 08:10:25;;;;;;;65.70;29.70;;;;;;;;;;110154;1278;22128;-74
2023/03/02 08:12:52;;;;;;;67.60;31.90;;;;;;;;;;110353;1259;22113;-74
2023/03/02 08:15:19;;;;;;;72.70;33.40;;;;;;;;;;110250;1278;22092;-74
2023/03/02 08:17:46;;;;;;;81.70;33.40;;;;;;;;;;110446;1272;22308;-74
2023/03/02 08:20:13;;;;;;;66.00;30.90;;;;;;;;;;110218;1277;22148;-74
2023/03/02 08:22:40;;;;;;;72.00;31.40;;;;;;;;;;110368;1258;22166;-75
2023/03/02 08:25:07;;;;;;;73.80;32.90;;;;;;;;;;110455;1278;22097;-74
2023/03/02 08:27:34;;;;;;;75.60;31.80;;;;;;;;;;110242;1277;22149;-74
2023/03/02 08:30:01;;;;;;;64.50;28.40;;;;;;;;;;110184;1277;22022;-74
2023/03/02 08:32:28;;;;;;;77.00;28.50;;;;;;;;;;110466;1256;22111;-74
2023/03/02 08:34:55;;;;;;;68.40;26.50;;;;;;;;;;110457;1278;22113;-74
2023/03/02 08:37:22;;;;;;;71.10;26.60;;;;;;;;;;110425;1277;22164;-74
2023/03/02 08:39:50;;;;;;;86.90;29.00;;;;;;;;;;110414;1278;22093;-74
2023/03/02 08:42:18;;;;;;;59.30;23.30;;;;;;;;;;110193;1255;22943;-75
2023/03/02 08:45:06;;;;;;;76.50;27.20;;;;;;;;;;110196;1278;22107;-74
2023/03/02 08:47:34;;;;;;;59.20;24.80;;;;;;;;;;110405;1278;22744;-75
2023/03/02 08:50:03;;;;;;;71.90;28.10;;;;;;;;;;110391;1278;22913;-75
2023/03/02 08:52:33;;;;;;;56.20;24.40;;;;;;;;;;110418;1255;22249;-74
2023/03/02 08:55:00;;;;;;;56.90;25.20;;;;;;;;;;110398;1278;22114;-75
2023/03/02 08:57:27;;;;;;;57.50;25.10;;;;;;;;;;110397;1278;22763;-75
2023/03/02 08:59:55;;;;;;;47.60;21.60;;;;;;;;;;110400;1278;22121;-74
2023/03/02 09:02:22;;;;;;;49.10;22.40;;;;;;;;;;110206;1278;22790;-75
2023/03/02 09:04:50;;;;;;;45.70;21.90;;;;;;;;;;110600;1259;22063;-75
2023/03/02 09:07:17;;;;;;;45.10;21.70;;;;;;;;;;110202;1278;22121;-74
2023/03/02 09:09:44;;;;;;;44.40;21.90;;;;;;;;;;110222;1278;22183;-74
2023/03/02 09:12:12;;;;;;;59.00;27.90;;;;;;;;;;110396;1278;22215;-75
2023/03/02 09:14:39;;;;;;;50.30;24.30;;;;;;;;;;110535;1259;22009;-75
2023/03/02 09:17:07;;;;;;;45.70;21.80;;;;;;;;;;110385;1278;22648;-74
2023/03/02 09:19:40;;;;;;;47.60;22.00;;;;;;;;;;110406;1278;22883;-74
2023/03/02 09:22:07;;;;;;;48.50;22.40;;;;;;;;;;110231;1278;22060;-75
2023/03/02 09:24:35;;;;;;;44.70;23.10;;;;;;;;;;110398;1260;22110;-74
2023/03/02 09:27:03;;;;;;;53.20;23.60;;;;;;;;;;110132;1278;22114;-75
2023/03/02 09:29:30;;;;;;;50.80;25.20;;;;;;;;;;110191;1278;22133;-74
2023/03/02 09:31:58;;;;;;;62.20;29.30;;;;;;;;;;110216;1278;22775;-75
2023/03/02 09:34:26;;;;;;;58.40;27.10;;;;;;;;;;110341;1259;22129;-75
2023/03/02 09:36:53;;;;;;;51.30;23.90;;;;;;;;;;110361;1278;22863;-75
2023/03/02 09:39:22;;;;;;;71.80;34.30;;;;;;;;;;110380;1278;22920;-74
2023/03/02 09:41:59;;;;;;;49.30;24.80;;;;;;;;;;110210;1278;22100;-74
2023/03/02 09:44:59;;;;;;;46.30;23.50;;;;;;;;;;110550;1259;22867;-74
2023/03/02 09:47:32;;;;;;;46.70;23.40;;;;;;;;;;110383;1278;22098;-74
2023/03/02 09:50:06;;;;;;;52.40;24.50;;;;;;;;;;110184;1278;22111;-75
2023/03/02 09:52:39;;;;;;;47.50;23.20;;;;;;;;;;110373;1278;22121;-75
2023/03/02 09:55:18;;;;;;;49.70;26.00;;;;;;;;;;110398;1259;22131;-75
2023/03/02 09:57:48;;;;;;;49.10;25.40;;;;;;;;;;110166;1278;22887;-74
2023/03/02 10:00:24;;;;;;;46.10;22.30;;;;;;;;;;110384;1278;22800;-74
2023/03/02 10:02:58;;;;;;;45.50;23.20;;;;;;;;;;110198;1278;22126;-75
2023/03/02 10:05:29;;;;;;;44.60;22.50;;;;;;;;;;110413;1259;22192;-75
2023/03/02 10:07:57;;;;;;;41.10;21.90;;;;;;;;;;110368;1278;22104;-75
2023/03/02 10:10:47;;;;;;;42.80;21.00;;;;;;;;;;110168;1278;22104;-75
2023/03/02 10:13:21;;;;;;;42.60;20.40;;;;;;;;;;110166;1278;22272;-75
2023/03/02 10:16:05;;;;;;;42.10;21.80;;;;;;;;;;110605;1256;22122;-74
2023/03/02 10:19:11;;;;;;;41.30;20.20;;;;;;;;;;110173;1278;22116;-74
2023/03/02 10:21:50;;;;;;;39.30;19.10;;;;;;;;;;109884;1285;22133;-75
2023/03/02 10:24:43;;;;;;;39.60;19.60;;;;;;;;;;109799;1262;22890;-75
2023/03/02 10:27:38;;;;;;;33.40;17.80;;;;;;;;;;109904;1285;22160;-74
2023/03/02 10:30:26;;;;;;;39.00;18.40;;;;;;;;;;109890;1285;22159;-75
2023/03/02 10:32:58;;;;;;;33.80;16.90;;;;;;;;;;109888;1285;22181;-75
2023/03/02 10:35:28;;;;;;;35.70;17.90;;;;;;;;;;109968;1265;22971;-75
2023/03/02 10:45:04;;;;;;;33.60;17.30;;;;;;;;;;103777;1293;545476;-82
2023/03/02 10:47:38;;;;;;;31.90;17.00;;;;;;;;;;106350;1287;25237;-77
2023/03/02 10:50:25;;;;;;;33.60;18.00;;;;;;;;;;106297;1287;22533;-79
2023/03/02 10:52:52;;;;;;;34.10;17.10;;;;;;;;;;106299;1287;24218;-81
2023/03/02 10:55:24;;;;;;;31.70;16.90;;;;;;;;;;106068;1287;25182;-82
2023/03/02 10:58:05;;;;;;;32.90;17.80;;;;;;;;;;104415;1284;2485358;-75
2023/03/02 11:01:13;;;;;;;30.30;16.50;;;;;;;;;;106432;1284;25284;-79
2023/03/02 11:03:39;;;;;;;34.00;17.40;;;;;;;;;;106439;1284;25300;-77
2023/03/02 11:06:49;;;;;;;32.30;16.60;;;;;;;;;;106305;1269;22539;-78
2023/03/02 11:09:56;;;;;;;32.50;16.90;;;;;;;;;;106408;1284;22636;-79
2023/03/02 11:12:34;;;;;;;39.50;18.50;;;;;;;;;;106349;1284;23279;-75
2023/03/02 11:15:32;;;;;;;31.90;16.50;;;;;;;;;;106377;1266;24259;-80
2023/03/02 11:18:22;;;;;;;32.00;16.60;;;;;;;;;;106383;1284;24226;-75
2023/03/02 11:20:52;;;;;;;33.20;17.80;;;;;;;;;;106406;1284;25376;-80
2023/03/02 11:23:59;;;;;;;32.20;17.50;;;;;;;;;;106502;1281;22547;-75
2023/03/02 11:27:08;;;;;;;;;;;;;;;;;;;;;
2023/03/02 11:29:44;;;;;;;34.90;18.00;;;;;;;;;;106439;1282;22529;-81
2023/03/02 11:32:16;;;;;;;33.60;17.10;;;;;;;;;;106449;1282;24361;-76
2023/03/02 11:35:09;;;;;;;33.40;17.20;;;;;;;;;;106473;1282;25401;-75
2023/03/02 11:38:09;;;;;;;29.20;15.60;;;;;;;;;;106682;1263;22529;-80
2023/03/02 11:41:12;;;;;;;;;;;;;;;;;;;;;
2023/03/02 11:44:06;;;;;;;28.50;15.20;;;;;;;;;;106122;1281;24191;-75
2023/03/02 11:46:36;;;;;;;32.40;17.40;;;;;;;;;;106039;1270;22566;-79
2023/03/02 11:49:05;;;;;;;27.00;15.30;;;;;;;;;;106098;1266;22532;-79
2023/03/02 11:51:48;;;;;;;31.10;15.70;;;;;;;;;;106076;1281;22536;-79
2023/03/02 11:54:28;;;;;;;27.60;15.00;;;;;;;;;;106191;1281;25294;-76
2023/03/02 11:57:17;;;;;;;27.90;14.80;;;;;;;;;;106027;1270;22593;-76
2023/03/02 12:00:05;;;;;;;28.80;15.80;;;;;;;;;;106046;1281;22638;-74
2023/03/02 12:03:09;;;;;;;;;;;;;;;;;;;;;
2023/03/02 12:05:46;;;;;;;25.20;13.10;;;;;;;;;;105688;1290;22540;-77
2023/03/02 12:08:42;;;;;;;25.50;14.10;;;;;;;;;;105963;1271;21887;-75
2023/03/02 12:11:18;;;;;;;26.00;13.40;;;;;;;;;;105900;1283;22538;-80
2023/03/02 12:14:08;;;;;;;25.40;14.00;;;;;;;;;;105817;1283;25226;-77
2023/03/02 12:16:37;;;;;;;26.90;14.90;;;;;;;;;;106129;1274;24226;-76
2023/03/02 12:19:27;;;;;;;29.30;16.20;;;;;;;;;;106380;1263;23871;-77
2023/03/02 12:22:20;;;;;;;28.30;15.40;;;;;;;;;;106349;1275;22605;-78
2023/03/02 12:24:57;;;;;;;28.50;16.30;;;;;;;;;;106438;1280;24535;-76
2023/03/02 12:27:33;;;;;;;32.00;17.10;;;;;;;;;;106380;1259;24210;-77
2023/03/02 12:30:35;;;;;;;29.50;16.20;;;;;;;;;;106419;1275;25252;-78
2023/03/02 12:33:21;;;;;;;26.70;14.30;;;;;;;;;;106481;1275;25339;-77
2023/03/02 12:36:10;;;;;;;38.00;20.90;;;;;;;;;;106337;1277;24284;-76
2023/03/02 12:39:12;;;;;;;38.20;21.30;;;;;;;;;;106547;1266;24738;-75
2023/03/02 12:41:40;;;;;;;37.40;20.40;;;;;;;;;;106260;1283;24210;-75
2023/03/02 12:44:13;;;;;;;39.30;22.00;;;;;;;;;;107066;1269;25443;-79
2023/03/02 12:46:45;;;;;;;42.90;26.60;;;;;;;;;;107156;1267;25401;-76
2023/03/02 12:49:48;;;;;;;34.00;20.20;;;;;;;;;;106949;1268;25204;-75
2023/03/02 12:52:26;;;;;;;36.10;21.00;;;;;;;;;;107188;1272;22531;-77
2023/03/02 12:55:17;;;;;;;35.00;21.10;;;;;;;;;;107089;1275;23896;-80
2023/03/02 12:58:17;;;;;;;40.10;23.60;;;;;;;;;;107139;1254;24337;-80
2023/03/02 13:00:50;;;;;;;38.60;21.40;;;;;;;;;;106912;1272;25875;-79
2023/03/02 13:03:56;;;;;;;39.00;22.70;;;;;;;;;;106937;1270;24234;-78
2023/03/02 13:06:42;;;;;;;31.80;20.30;;;;;;;;;;107158;1269;22563;-75
2023/03/02 13:09:13;;;;;;;34.30;19.60;;;;;;;;;;106908;1269;22525;-75
2023/03/02 13:11:43;;;;;;;39.20;24.00;;;;;;;;;;106910;1267;25486;-76
2023/03/02 13:14:18;;;;;;;38.30;21.90;;;;;;;;;;107225;1269;25241;-77
2023/03/02 13:17:14;;;;;;;36.60;22.60;;;;;;;;;;107138;1272;22511;-82
2023/03/02 13:20:21;;;;;;;32.40;17.00;;;;;;;;;;107190;1256;25224;-74
2023/03/02 13:23:41;;;;;;;36.60;22.40;;;;;;;;;;107055;1271;26613;-75
2023/03/02 13:26:35;;;;;;;33.90;18.10;;;;;;;;;;106846;1269;26481;-76
2023/03/02 13:29:23;;;;;;;;;;;;;;;;;;;;;
2023/03/02 13:32:18;;;;;;;32.20;17.40;;;;;;;;;;103854;1300;546454;-81
2023/03/02 13:34:57;;;;;;;29.40;17.10;;;;;;;;;;106279;1279;22650;-75
2023/03/02 13:37:42;;;;;;;28.30;15.80;;;;;;;;;;106261;1283;22567;-75
2023/03/02 13:40:22;;;;;;;27.40;15.00;;;;;;;;;;106082;1285;24339;-76
2023/03/02 13:42:50;;;;;;;37.10;18.70;;;;;;;;;;105959;1272;25374;-76
2023/03/02 13:45:23;;;;;;;36.80;19.80;;;;;;;;;;104013;1279;2473218;-76
2023/03/02 13:47:51;;;;;;;34.80;19.00;;;;;;;;;;106066;1282;24266;-75
2023/03/02 13:50:19;;;;;;;39.40;21.90;;;;;;;;;;106065;1287;22523;-75
2023/03/02 13:52:47;;;;;;;33.50;18.50;;;;;;;;;;106352;1276;23885;-79
2023/03/02 13:55:15;;;;;;;31.50;16.60;;;;;;;;;;106456;1278;22639;-78
2023/03/02 13:57:44;;;;;;;34.40;18.80;;;;;;;;;;106758;1273;22575;-76
2023/03/02 14:00:24;;;;;;;38.30;23.00;;;;;;;;;;106737;1279;22772;-77
2023/03/02 14:02:54;;;;;;;34.60;20.30;;;;;;;;;;106749;1263;22674;-76
2023/03/02 14:05:45;;;;;;;28.40;16.40;;;;;;;;;;106497;1273;22531;-76
2023/03/02 14:08:15;;;;;;;30.60;15.70;;;;;;;;;;106797;1276;24249;-76
2023/03/02 14:10:50;;;;;;;35.30;18.80;;;;;;;;;;106499;1273;22560;-76
2023/03/02 14:13:25;;;;;;;29.40;16.30;;;;;;;;;;106618;1279;25287;-75
2023/03/02 14:15:52;;;;;;;33.50;18.30;;;;;;;;;;106898;1273;22535;-75
2023/03/02 14:18:28;;;;;;;29.30;15.70;;;;;;;;;;106676;1273;22994;-74
2023/03/02 14:20:56;;;;;;;32.50;16.50;;;;;;;;;;106489;1275;25356;-78
2023/03/02 14:23:26;;;;;;;33.80;18.90;;;;;;;;;;106949;1263;22615;-77
2023/03/02 14:26:08;;;;;;;29.90;15.50;;;;;;;;;;106747;1273;25335;-76
2023/03/02 14:28:37;;;;;;;31.20;16.40;;;;;;;;;;106454;1276;22520;-78
2023/03/02 14:31:07;;;;;;;28.80;14.10;;;;;;;;;;106522;1276;24397;-79
2023/03/02 14:33:55;;;;;;;27.10;13.80;;;;;;;;;;106528;1279;22530;-75
2023/03/02 14:36:26;;;;;;;27.20;13.90;;;;;;;;;;106724;1278;22665;-76
2023/03/02 14:38:56;;;;;;;32.40;15.60;;;;;;;;;;106854;1273;25223;-73
2023/03/02 14:41:31;;;;;;;31.50;15.70;;;;;;;;;;106800;1275;22528;-79
2023/03/02 14:44:04;;;;;;;54.70;28.80;;;;;;;;;;106728;1271;22527;-74
2023/03/02 14:46:31;;;;;;;27.80;15.00;;;;;;;;;;106619;1276;24361;-75
2023/03/02 14:49:27;;;;;;;39.60;25.90;;;;;;;;;;106670;1279;23209;-79
2023/03/02 14:52:05;;;;;;;41.20;21.90;;;;;;;;;;106870;1269;22529;-74
2023/03/02 14:54:38;;;;;;;39.30;19.10;;;;;;;;;;106732;1260;22534;-78
2023/03/02 14:57:26;;;;;;;33.10;16.20;;;;;;;;;;106684;1279;25331;-78
2023/03/02 14:59:54;;;;;;;32.60;15.30;;;;;;;;;;106830;1275;22531;-74
2023/03/02 15:02:30;;;;;;;31.90;16.00;;;;;;;;;;106702;1273;22632;-74
2023/03/02 15:04:57;;;;;;;35.20;17.20;;;;;;;;;;106711;1271;25207;-79
2023/03/02 15:07:40;;;;;;;36.00;18.50;;;;;;;;;;106590;1273;22511;-74
2023/03/02 15:10:08;;;;;;;36.60;19.70;;;;;;;;;;106718;1275;22616;-79
2023/03/02 15:13:07;;;;;;;31.80;16.80;;;;;;;;;;106718;1278;22525;-81
2023/03/02 15:15:53;;;;;;;32.00;15.90;;;;;;;;;;106650;1266;22577;-75
2023/03/02 15:18:20;;;;;;;31.70;15.60;;;;;;;;;;106638;1276;22615;-76
2023/03/02 15:21:13;;;;;;;32.20;17.40;;;;;;;;;;106758;1278;25328;-78
2023/03/02 15:23:43;;;;;;;37.40;18.50;;;;;;;;;;106583;1267;25284;-75
2023/03/02 15:26:10;;;;;;;36.20;18.50;;;;;;;;;;106695;1280;22529;-81
2023/03/02 15:28:38;;;;;;;38.20;18.10;;;;;;;;;;106773;1277;24292;-80
2023/03/02 15:31:26;;;;;;;32.50;16.70;;;;;;;;;;106493;1276;25314;-75
2023/03/02 15:34:24;;;;;;;31.40;16.40;;;;;;;;;;106720;1279;24275;-74
2023/03/02 15:36:52;;;;;;;37.10;18.00;;;;;;;;;;107075;1279;22523;-74
2023/03/02 15:39:28;;;;;;;40.60;17.80;;;;;;;;;;106685;1270;23791;-75
2023/03/02 15:42:05;;;;;;;35.00;17.30;;;;;;;;;;107092;1272;22532;-76
2023/03/02 15:44:52;;;;;;;34.50;17.10;;;;;;;;;;107058;1265;22543;-76
2023/03/02 15:47:39;;;;;;;37.80;18.90;;;;;;;;;;107090;1269;22522;-79
2023/03/02 15:50:26;;;;;;;35.30;17.70;;;;;;;;;;107095;1275;22753;-80
2023/03/02 15:53:16;;;;;;;36.90;18.70;;;;;;;;;;106941;1270;22749;-76
2023/03/02 15:56:08;;;;;;;35.00;17.50;;;;;;;;;;107007;1256;22520;-75
2023/03/02 15:59:04;;;;;;;;;;;;;;;;;;;;;
2023/03/02 16:01:34;;;;;;;35.80;17.20;;;;;;;;;;107143;1267;22623;-74
2023/03/02 16:04:26;;;;;;;31.60;15.90;;;;;;;;;;107098;1257;22529;-77
2023/03/02 16:07:24;;;;;;;35.60;16.30;;;;;;;;;;106979;1273;25249;-76
2023/03/02 16:10:24;;;;;;;32.60;16.00;;;;;;;;;;107026;1272;22550;-74
2023/03/02 16:13:01;;;;;;;35.80;16.40;;;;;;;;;;106983;1275;22523;-75
2023/03/02 16:15:33;;;;;;;30.40;15.50;;;;;;;;;;107066;1264;24267;-79
2023/03/02 16:18:03;;;;;;;34.40;16.30;;;;;;;;;;107174;1272;24646;-75
2023/03/02 16:20:32;;;;;;;34.90;14.60;;;;;;;;;;107200;1272;25252;-75
2023/03/02 16:23:05;;;;;;;33.10;16.10;;;;;;;;;;107941;1273;24266;-75
2023/03/02 16:26:33;;;;;;;32.10;14.30;;;;;;;;;;106801;1256;22469;-76
2023/03/02 16:29:52;;;;;;;31.20;14.30;;;;;;;;;;106795;1275;22527;-79
2023/03/02 16:32:36;;;;;;;;;;;;;;;;;;;;;
2023/03/02 16:35:24;;;;;;;35.90;14.80;;;;;;;;;;106942;1254;22544;-75
2023/03/02 16:38:12;;;;;;;38.70;17.20;;;;;;;;;;107036;1272;22527;-75
2023/03/02 16:40:57;;;;;;;;;;;;;;;;;;;;;
2023/03/02 16:44:30;;;;;;;43.20;17.50;;;;;;;;;;106823;1272;22524;-77
2023/03/02 16:46:56;;;;;;;46.80;18.40;;;;;;;;;;106721;1276;22530;-79
2023/03/02 16:49:56;;;;;;;58.50;22.10;;;;;;;;;;106873;1276;22750;-77
2023/03/02 16:52:59;;;;;;;74.20;26.90;;;;;;;;;;107028;1269;24416;-75
2023/03/02 16:55:38;;;;;;;74.80;26.80;;;;;;;;;;107048;1260;22804;-78
2023/03/02 16:59:30;;;;;;;65.00;25.20;;;;;;;;;;107058;1275;25410;-77
2023/03/02 17:02:23;;;;;;;;;;;;;;;;;;;;;
2023/03/02 17:05:58;;;;;;;56.10;20.30;;;;;;;;;;106277;1285;22590;-74
2023/03/02 17:08:39;;;;;;;50.90;19.40;;;;;;;;;;106043;1273;22561;-75
2023/03/02 17:11:10;;;;;;;47.80;19.30;;;;;;;;;;105904;1286;24191;-77
2023/03/02 17:14:04;;;;;;;48.70;20.30;;;;;;;;;;105967;1287;22540;-77
2023/03/02 17:16:59;;;;;;;;;;;;;;;;;;;;;
2023/03/02 17:20:07;;;;;;;84.50;30.40;;;;;;;;;;106296;1286;22526;-78
2023/03/02 17:23:24;;;;;;;;;;;;;;;;;;;;;
2023/03/02 17:26:04;;;;;;;90.00;34.60;;;;;;;;;;106458;1279;24233;-74
2023/03/02 17:35:29;;;;;;;148.10;50.40;;;;;;;;;;106295;1282;22549;-76
2023/03/02 17:38:17;;;;;;;132.20;48.60;;;;;;;;;;106398;1282;22523;-80
2023/03/02 17:41:23;;;;;;;132.20;49.60;;;;;;;;;;106517;1279;25328;-75
2023/03/02 17:44:22;;;;;;;;;;;;;;;;;;;;;
2023/03/02 17:48:15;;;;;;;95.50;36.20;;;;;;;;;;107011;1254;24252;-78
2023/03/02 17:51:41;;;;;;;89.20;34.30;;;;;;;;;;107077;1276;22632;-75
2023/03/02 17:54:22;;;;;;;90.80;36.10;;;;;;;;;;106416;1274;22554;-74
2023/03/02 17:57:20;;;;;;;85.00;33.10;;;;;;;;;;106589;1274;24216;-74
2023/03/02 18:00:29;;;;;;;95.70;40.20;;;;;;;;;;106574;1271;24205;-74